sensor_id;sensor_type;location;lat;lon;timestamp;P1;durP1;ratioP1;P2;durP2;ratioP2
37407;SDS011;24866;50.248;8.252;2022-12-07T00:01:36;28.00;;;15.57;;
37407;SDS011;24866;50.248;8.252;2022-12-07T00:04:08;27.45;;;14.13;;
37407;SDS011;24866;50.248;8.252;2022-12-07T00:06:43;25.65;;;13.95;;
37407;SDS011;24866;50.248;8.252;2022-12-07T00:09:14;25.02;;;14.35;;
37407;SDS011;24866;50.248;8.252;2022-12-07T00:11:47;26.77;;;14.73;;
37407;SDS011;24866;50.248;8.252;2022-12-07T00:14:19;24.95;;;13.55;;
37407;SDS011;24866;50.248;8.252;2022-12-07T00:16:50;22.40;;;12.68;;
37407;SDS011;24866;50.248;8.252;2022-12-07T00:19:20;23.27;;;13.30;;
37407;SDS011;24866;50.248;8.252;2022-12-07T00:21:52;28.73;;;14.38;;
37407;SDS011;24866;50.248;8.252;2022-12-07T00:24:21;23.48;;;13.75;;
37407;SDS011;24866;50.248;8.252;2022-12-07T00:26:51;22.83;;;13.35;;
37407;SDS011;24866;50.248;8.252;2022-12-07T00:29:21;23.08;;;13.23;;
37407;SDS011;24866;50.248;8.252;2022-12-07T00:31:52;19.80;;;12.07;;
37407;SDS011;24866;50.248;8.252;2022-12-07T00:34:21;21.35;;;12.02;;
37407;SDS011;24866;50.248;8.252;2022-12-07T00:36:53;21.45;;;11.52;;
37407;SDS011;24866;50.248;8.252;2022-12-07T00:39:23;21.52;;;12.32;;
37407;SDS011;24866;50.248;8.252;2022-12-07T00:41:53;21.15;;;11.38;;
37407;SDS011;24866;50.248;8.252;2022-12-07T00:44:22;25.00;;;11.90;;
37407;SDS011;24866;50.248;8.252;2022-12-07T00:46:52;20.30;;;12.57;;
37407;SDS011;24866;50.248;8.252;2022-12-07T00:49:23;23.25;;;11.65;;
37407;SDS011;24866;50.248;8.252;2022-12-07T00:51:55;22.80;;;12.77;;
37407;SDS011;24866;50.248;8.252;2022-12-07T00:54:25;21.02;;;11.70;;
37407;SDS011;24866;50.248;8.252;2022-12-07T00:56:55;23.42;;;12.75;;
37407;SDS011;24866;50.248;8.252;2022-12-07T00:59:25;20.83;;;11.43;;
37407;SDS011;24866;50.248;8.252;2022-12-07T01:01:54;19.55;;;11.18;;
37407;SDS011;24866;50.248;8.252;2022-12-07T01:04:24;18.15;;;10.15;;
37407;SDS011;24866;50.248;8.252;2022-12-07T01:06:56;17.08;;;10.30;;
37407;SDS011;24866;50.248;8.252;2022-12-07T01:09:25;17.30;;;10.07;;
37407;SDS011;24866;50.248;8.252;2022-12-07T01:11:55;16.55;;;9.50;;
37407;SDS011;24866;50.248;8.252;2022-12-07T01:14:25;16.77;;;9.10;;
37407;SDS011;24866;50.248;8.252;2022-12-07T01:16:55;17.88;;;8.95;;
37407;SDS011;24866;50.248;8.252;2022-12-07T01:19:25;14.45;;;9.40;;
37407;SDS011;24866;50.248;8.252;2022-12-07T01:21:56;16.85;;;8.88;;
37407;SDS011;24866;50.248;8.252;2022-12-07T01:24:26;15.43;;;8.77;;
37407;SDS011;24866;50.248;8.252;2022-12-07T01:26:56;17.38;;;9.43;;
37407;SDS011;24866;50.248;8.252;2022-12-07T01:29:26;19.23;;;10.82;;
37407;SDS011;24866;50.248;8.252;2022-12-07T01:31:56;18.48;;;9.95;;
37407;SDS011;24866;50.248;8.252;2022-12-07T01:34:26;19.38;;;10.75;;
37407;SDS011;24866;50.248;8.252;2022-12-07T01:36:57;18.58;;;10.38;;
37407;SDS011;24866;50.248;8.252;2022-12-07T01:39:27;18.17;;;10.57;;
37407;SDS011;24866;50.248;8.252;2022-12-07T01:41:57;16.75;;;9.57;;
37407;SDS011;24866;50.248;8.252;2022-12-07T01:44:27;17.85;;;9.60;;
37407;SDS011;24866;50.248;8.252;2022-12-07T01:47:00;15.35;;;8.98;;
37407;SDS011;24866;50.248;8.252;2022-12-07T01:49:33;19.52;;;9.88;;
37407;SDS011;24866;50.248;8.252;2022-12-07T01:52:09;16.08;;;9.18;;
37407;SDS011;24866;50.248;8.252;2022-12-07T01:54:44;17.50;;;10.02;;
37407;SDS011;24866;50.248;8.252;2022-12-07T01:57:16;17.67;;;9.07;;
37407;SDS011;24866;50.248;8.252;2022-12-07T01:59:47;17.13;;;8.82;;
37407;SDS011;24866;50.248;8.252;2022-12-07T02:02:20;16.48;;;7.57;;
37407;SDS011;24866;50.248;8.252;2022-12-07T02:04:55;14.88;;;7.97;;
37407;SDS011;24866;50.248;8.252;2022-12-07T02:07:27;14.25;;;7.65;;
37407;SDS011;24866;50.248;8.252;2022-12-07T02:12:40;14.18;;;7.60;;
37407;SDS011;24866;50.248;8.252;2022-12-07T02:15:11;15.52;;;8.20;;
37407;SDS011;24866;50.248;8.252;2022-12-07T02:17:43;14.27;;;7.60;;
37407;SDS011;24866;50.248;8.252;2022-12-07T02:20:23;15.48;;;8.10;;
37407;SDS011;24866;50.248;8.252;2022-12-07T02:23:04;15.20;;;7.95;;
37407;SDS011;24866;50.248;8.252;2022-12-07T02:29:10;14.25;;;8.13;;
37407;SDS011;24866;50.248;8.252;2022-12-07T02:31:46;14.05;;;7.30;;
37407;SDS011;24866;50.248;8.252;2022-12-07T02:34:28;12.30;;;7.80;;
37407;SDS011;24866;50.248;8.252;2022-12-07T02:37:05;13.95;;;7.95;;
37407;SDS011;24866;50.248;8.252;2022-12-07T02:39:41;13.30;;;7.18;;
37407;SDS011;24866;50.248;8.252;2022-12-07T02:42:16;12.93;;;5.70;;
37407;SDS011;24866;50.248;8.252;2022-12-07T02:44:53;13.05;;;6.32;;
37407;SDS011;24866;50.248;8.252;2022-12-07T02:47:23;12.77;;;6.10;;
37407;SDS011;24866;50.248;8.252;2022-12-07T02:49:55;12.97;;;4.80;;
37407;SDS011;24866;50.248;8.252;2022-12-07T02:52:25;6.97;;;4.07;;
37407;SDS011;24866;50.248;8.252;2022-12-07T02:54:55;11.93;;;6.13;;
37407;SDS011;24866;50.248;8.252;2022-12-07T02:57:28;11.93;;;7.10;;
37407;SDS011;24866;50.248;8.252;2022-12-07T03:00:11;13.55;;;7.25;;
37407;SDS011;24866;50.248;8.252;2022-12-07T03:02:50;15.00;;;5.93;;
37407;SDS011;24866;50.248;8.252;2022-12-07T03:05:31;13.13;;;6.47;;
37407;SDS011;24866;50.248;8.252;2022-12-07T03:08:13;9.95;;;5.03;;
37407;SDS011;24866;50.248;8.252;2022-12-07T03:10:51;13.57;;;6.70;;
37407;SDS011;24866;50.248;8.252;2022-12-07T03:13:28;13.15;;;8.30;;
37407;SDS011;24866;50.248;8.252;2022-12-07T03:16:05;13.07;;;8.00;;
37407;SDS011;24866;50.248;8.252;2022-12-07T03:18:40;14.05;;;7.80;;
37407;SDS011;24866;50.248;8.252;2022-12-07T03:21:14;15.45;;;7.70;;
37407;SDS011;24866;50.248;8.252;2022-12-07T03:23:48;14.48;;;7.85;;
37407;SDS011;24866;50.248;8.252;2022-12-07T03:26:21;16.63;;;7.50;;
37407;SDS011;24866;50.248;8.252;2022-12-07T03:28:58;14.60;;;7.55;;
37407;SDS011;24866;50.248;8.252;2022-12-07T03:31:36;15.07;;;7.43;;
37407;SDS011;24866;50.248;8.252;2022-12-07T03:34:10;15.70;;;8.82;;
37407;SDS011;24866;50.248;8.252;2022-12-07T03:36:44;13.90;;;7.30;;
37407;SDS011;24866;50.248;8.252;2022-12-07T03:39:21;15.63;;;9.07;;
37407;SDS011;24866;50.248;8.252;2022-12-07T03:41:55;16.75;;;8.43;;
37407;SDS011;24866;50.248;8.252;2022-12-07T03:44:28;16.52;;;8.82;;
37407;SDS011;24866;50.248;8.252;2022-12-07T03:47:01;11.57;;;6.28;;
37407;SDS011;24866;50.248;8.252;2022-12-07T03:49:36;15.60;;;7.03;;
37407;SDS011;24866;50.248;8.252;2022-12-07T03:52:12;17.02;;;8.63;;
37407;SDS011;24866;50.248;8.252;2022-12-07T03:54:52;15.45;;;7.93;;
37407;SDS011;24866;50.248;8.252;2022-12-07T03:57:26;17.58;;;8.88;;
37407;SDS011;24866;50.248;8.252;2022-12-07T03:59:58;22.00;;;9.88;;
37407;SDS011;24866;50.248;8.252;2022-12-07T04:02:30;16.95;;;10.32;;
37407;SDS011;24866;50.248;8.252;2022-12-07T04:05:02;16.88;;;9.30;;
37407;SDS011;24866;50.248;8.252;2022-12-07T04:07:33;20.33;;;10.68;;
37407;SDS011;24866;50.248;8.252;2022-12-07T04:10:03;31.80;;;11.38;;
37407;SDS011;24866;50.248;8.252;2022-12-07T04:12:34;18.25;;;10.70;;
37407;SDS011;24866;50.248;8.252;2022-12-07T04:15:04;19.77;;;10.75;;
37407;SDS011;24866;50.248;8.252;2022-12-07T04:17:36;18.65;;;11.75;;
37407;SDS011;24866;50.248;8.252;2022-12-07T04:20:07;19.33;;;10.02;;
37407;SDS011;24866;50.248;8.252;2022-12-07T04:22:37;19.50;;;10.63;;
37407;SDS011;24866;50.248;8.252;2022-12-07T04:25:07;22.20;;;11.40;;
37407;SDS011;24866;50.248;8.252;2022-12-07T04:27:38;25.67;;;11.95;;
37407;SDS011;24866;50.248;8.252;2022-12-07T04:30:08;18.60;;;10.27;;
37407;SDS011;24866;50.248;8.252;2022-12-07T04:32:40;18.48;;;9.43;;
37407;SDS011;24866;50.248;8.252;2022-12-07T04:35:10;19.85;;;10.20;;
37407;SDS011;24866;50.248;8.252;2022-12-07T04:37:40;20.75;;;11.20;;
37407;SDS011;24866;50.248;8.252;2022-12-07T04:40:10;20.27;;;10.93;;
37407;SDS011;24866;50.248;8.252;2022-12-07T04:42:42;21.00;;;10.93;;
37407;SDS011;24866;50.248;8.252;2022-12-07T04:45:12;20.40;;;11.60;;
37407;SDS011;24866;50.248;8.252;2022-12-07T04:47:43;18.40;;;11.27;;
37407;SDS011;24866;50.248;8.252;2022-12-07T04:50:13;21.83;;;10.82;;
37407;SDS011;24866;50.248;8.252;2022-12-07T04:52:43;21.48;;;13.07;;
37407;SDS011;24866;50.248;8.252;2022-12-07T04:55:13;29.88;;;10.77;;
37407;SDS011;24866;50.248;8.252;2022-12-07T04:57:43;19.30;;;10.50;;
37407;SDS011;24866;50.248;8.252;2022-12-07T05:00:13;20.02;;;11.05;;
37407;SDS011;24866;50.248;8.252;2022-12-07T05:02:44;22.45;;;11.43;;
37407;SDS011;24866;50.248;8.252;2022-12-07T05:05:14;19.02;;;10.65;;
37407;SDS011;24866;50.248;8.252;2022-12-07T05:07:44;22.77;;;11.52;;
37407;SDS011;24866;50.248;8.252;2022-12-07T05:10:14;19.75;;;10.82;;
37407;SDS011;24866;50.248;8.252;2022-12-07T05:12:44;22.35;;;11.15;;
37407;SDS011;24866;50.248;8.252;2022-12-07T05:15:14;22.35;;;11.48;;
37407;SDS011;24866;50.248;8.252;2022-12-07T05:17:46;20.85;;;12.07;;
37407;SDS011;24866;50.248;8.252;2022-12-07T05:20:16;20.58;;;10.23;;
37407;SDS011;24866;50.248;8.252;2022-12-07T05:22:46;19.92;;;10.88;;
37407;SDS011;24866;50.248;8.252;2022-12-07T05:25:16;21.17;;;12.27;;
37407;SDS011;24866;50.248;8.252;2022-12-07T05:27:46;21.25;;;11.43;;
37407;SDS011;24866;50.248;8.252;2022-12-07T05:30:16;22.83;;;12.35;;
37407;SDS011;24866;50.248;8.252;2022-12-07T05:32:47;21.95;;;10.75;;
37407;SDS011;24866;50.248;8.252;2022-12-07T05:35:18;20.15;;;11.02;;
37407;SDS011;24866;50.248;8.252;2022-12-07T05:37:48;20.38;;;10.82;;
37407;SDS011;24866;50.248;8.252;2022-12-07T05:40:18;23.92;;;12.00;;
37407;SDS011;24866;50.248;8.252;2022-12-07T05:42:48;17.80;;;9.70;;
37407;SDS011;24866;50.248;8.252;2022-12-07T05:45:17;20.95;;;10.38;;
37407;SDS011;24866;50.248;8.252;2022-12-07T05:47:49;23.45;;;10.68;;
37407;SDS011;24866;50.248;8.252;2022-12-07T05:50:19;25.75;;;10.88;;
37407;SDS011;24866;50.248;8.252;2022-12-07T05:52:49;17.65;;;9.10;;
37407;SDS011;24866;50.248;8.252;2022-12-07T05:55:19;14.88;;;8.88;;
37407;SDS011;24866;50.248;8.252;2022-12-07T05:57:49;19.33;;;6.43;;
37407;SDS011;24866;50.248;8.252;2022-12-07T06:00:34;13.13;;;5.68;;
37407;SDS011;24866;50.248;8.252;2022-12-07T06:03:05;15.13;;;7.95;;
37407;SDS011;24866;50.248;8.252;2022-12-07T06:05:35;18.55;;;7.15;;
37407;SDS011;24866;50.248;8.252;2022-12-07T06:08:05;16.67;;;8.90;;
37407;SDS011;24866;50.248;8.252;2022-12-07T06:10:35;19.15;;;9.00;;
37407;SDS011;24866;50.248;8.252;2022-12-07T06:13:05;16.63;;;9.35;;
37407;SDS011;24866;50.248;8.252;2022-12-07T06:15:35;16.85;;;9.02;;
37407;SDS011;24866;50.248;8.252;2022-12-07T06:18:06;18.15;;;9.35;;
37407;SDS011;24866;50.248;8.252;2022-12-07T06:20:36;21.90;;;10.52;;
37407;SDS011;24866;50.248;8.252;2022-12-07T06:23:06;17.02;;;10.45;;
37407;SDS011;24866;50.248;8.252;2022-12-07T06:25:36;14.55;;;7.07;;
37407;SDS011;24866;50.248;8.252;2022-12-07T06:28:05;18.85;;;9.80;;
37407;SDS011;24866;50.248;8.252;2022-12-07T06:30:35;16.48;;;8.48;;
37407;SDS011;24866;50.248;8.252;2022-12-07T06:33:07;18.40;;;9.57;;
37407;SDS011;24866;50.248;8.252;2022-12-07T06:35:37;12.50;;;7.13;;
37407;SDS011;24866;50.248;8.252;2022-12-07T06:38:06;16.27;;;8.68;;
37407;SDS011;24866;50.248;8.252;2022-12-07T06:40:36;17.30;;;9.68;;
37407;SDS011;24866;50.248;8.252;2022-12-07T06:43:06;16.30;;;8.60;;
37407;SDS011;24866;50.248;8.252;2022-12-07T06:45:36;16.58;;;9.77;;
37407;SDS011;24866;50.248;8.252;2022-12-07T06:48:07;17.75;;;8.98;;
37407;SDS011;24866;50.248;8.252;2022-12-07T06:50:37;17.10;;;8.68;;
37407;SDS011;24866;50.248;8.252;2022-12-07T06:53:07;17.00;;;9.38;;
37407;SDS011;24866;50.248;8.252;2022-12-07T06:55:38;18.40;;;10.27;;
37407;SDS011;24866;50.248;8.252;2022-12-07T06:58:08;15.07;;;9.48;;
37407;SDS011;24866;50.248;8.252;2022-12-07T07:00:37;16.83;;;9.15;;
37407;SDS011;24866;50.248;8.252;2022-12-07T07:03:09;14.48;;;7.25;;
37407;SDS011;24866;50.248;8.252;2022-12-07T07:05:39;16.92;;;9.43;;
37407;SDS011;24866;50.248;8.252;2022-12-07T07:08:09;14.32;;;8.00;;
37407;SDS011;24866;50.248;8.252;2022-12-07T07:10:39;15.65;;;8.18;;
37407;SDS011;24866;50.248;8.252;2022-12-07T07:13:09;14.40;;;8.50;;
37407;SDS011;24866;50.248;8.252;2022-12-07T07:15:39;14.73;;;7.53;;
37407;SDS011;24866;50.248;8.252;2022-12-07T07:18:10;15.88;;;8.45;;
37407;SDS011;24866;50.248;8.252;2022-12-07T07:20:40;12.90;;;7.45;;
37407;SDS011;24866;50.248;8.252;2022-12-07T07:23:10;13.80;;;8.50;;
37407;SDS011;24866;50.248;8.252;2022-12-07T07:25:40;11.73;;;6.88;;
37407;SDS011;24866;50.248;8.252;2022-12-07T07:28:10;10.95;;;6.20;;
37407;SDS011;24866;50.248;8.252;2022-12-07T07:30:40;13.52;;;7.43;;
37407;SDS011;24866;50.248;8.252;2022-12-07T07:33:12;12.35;;;7.45;;
37407;SDS011;24866;50.248;8.252;2022-12-07T07:35:42;12.45;;;7.40;;
37407;SDS011;24866;50.248;8.252;2022-12-07T07:38:12;11.60;;;6.80;;
37407;SDS011;24866;50.248;8.252;2022-12-07T07:40:42;12.32;;;7.38;;
37407;SDS011;24866;50.248;8.252;2022-12-07T07:43:12;12.68;;;7.72;;
37407;SDS011;24866;50.248;8.252;2022-12-07T07:45:42;13.20;;;7.60;;
37407;SDS011;24866;50.248;8.252;2022-12-07T07:48:14;11.82;;;6.47;;
37407;SDS011;24866;50.248;8.252;2022-12-07T07:50:44;12.82;;;6.63;;
37407;SDS011;24866;50.248;8.252;2022-12-07T07:53:14;10.57;;;5.07;;
37407;SDS011;24866;50.248;8.252;2022-12-07T07:55:49;7.72;;;4.65;;
37407;SDS011;24866;50.248;8.252;2022-12-07T07:58:20;9.75;;;4.13;;
37407;SDS011;24866;50.248;8.252;2022-12-07T08:00:50;13.80;;;8.15;;
37407;SDS011;24866;50.248;8.252;2022-12-07T08:03:22;11.73;;;7.40;;
37407;SDS011;24866;50.248;8.252;2022-12-07T08:05:52;11.85;;;7.10;;
37407;SDS011;24866;50.248;8.252;2022-12-07T08:08:22;11.85;;;6.70;;
37407;SDS011;24866;50.248;8.252;2022-12-07T08:10:52;10.55;;;5.25;;
37407;SDS011;24866;50.248;8.252;2022-12-07T08:13:22;11.32;;;6.03;;
37407;SDS011;24866;50.248;8.252;2022-12-07T08:15:52;11.77;;;6.18;;
37407;SDS011;24866;50.248;8.252;2022-12-07T08:18:23;10.73;;;6.15;;
37407;SDS011;24866;50.248;8.252;2022-12-07T08:20:58;10.45;;;6.25;;
37407;SDS011;24866;50.248;8.252;2022-12-07T08:23:29;11.65;;;6.60;;
37407;SDS011;24866;50.248;8.252;2022-12-07T08:25:59;10.75;;;6.53;;
37407;SDS011;24866;50.248;8.252;2022-12-07T08:28:30;12.02;;;7.22;;
37407;SDS011;24866;50.248;8.252;2022-12-07T08:31:00;11.80;;;6.50;;
37407;SDS011;24866;50.248;8.252;2022-12-07T08:33:32;11.48;;;6.13;;
37407;SDS011;24866;50.248;8.252;2022-12-07T08:36:04;11.85;;;6.63;;
37407;SDS011;24866;50.248;8.252;2022-12-07T08:38:35;10.20;;;5.88;;
37407;SDS011;24866;50.248;8.252;2022-12-07T08:41:07;12.77;;;6.70;;
37407;SDS011;24866;50.248;8.252;2022-12-07T08:43:37;11.98;;;7.13;;
37407;SDS011;24866;50.248;8.252;2022-12-07T08:46:08;10.18;;;5.75;;
37407;SDS011;24866;50.248;8.252;2022-12-07T08:48:44;12.48;;;7.85;;
37407;SDS011;24866;50.248;8.252;2022-12-07T08:51:19;17.67;;;7.15;;
37407;SDS011;24866;50.248;8.252;2022-12-07T08:53:50;14.43;;;8.65;;
37407;SDS011;24866;50.248;8.252;2022-12-07T08:56:21;12.68;;;7.13;;
37407;SDS011;24866;50.248;8.252;2022-12-07T08:58:52;13.32;;;7.25;;
37407;SDS011;24866;50.248;8.252;2022-12-07T09:01:22;12.98;;;6.78;;
37407;SDS011;24866;50.248;8.252;2022-12-07T09:03:54;11.25;;;7.10;;
37407;SDS011;24866;50.248;8.252;2022-12-07T09:06:24;10.18;;;5.65;;
37407;SDS011;24866;50.248;8.252;2022-12-07T09:08:54;13.55;;;7.65;;
37407;SDS011;24866;50.248;8.252;2022-12-07T09:11:27;15.13;;;7.55;;
37407;SDS011;24866;50.248;8.252;2022-12-07T09:13:58;12.02;;;6.50;;
37407;SDS011;24866;50.248;8.252;2022-12-07T09:16:28;13.75;;;7.97;;
37407;SDS011;24866;50.248;8.252;2022-12-07T09:18:59;17.20;;;7.22;;
37407;SDS011;24866;50.248;8.252;2022-12-07T09:21:29;12.35;;;6.47;;
37407;SDS011;24866;50.248;8.252;2022-12-07T09:23:59;13.48;;;6.18;;
37407;SDS011;24866;50.248;8.252;2022-12-07T09:26:29;11.80;;;6.68;;
37407;SDS011;24866;50.248;8.252;2022-12-07T09:28:59;16.05;;;7.35;;
37407;SDS011;24866;50.248;8.252;2022-12-07T09:31:29;9.07;;;6.03;;
37407;SDS011;24866;50.248;8.252;2022-12-07T09:34:01;11.77;;;6.53;;
37407;SDS011;24866;50.248;8.252;2022-12-07T09:36:31;13.10;;;7.40;;
37407;SDS011;24866;50.248;8.252;2022-12-07T09:39:02;9.15;;;5.65;;
37407;SDS011;24866;50.248;8.252;2022-12-07T09:41:32;11.30;;;5.53;;
37407;SDS011;24866;50.248;8.252;2022-12-07T09:44:06;9.13;;;5.47;;
37407;SDS011;24866;50.248;8.252;2022-12-07T09:46:42;9.48;;;5.65;;
37407;SDS011;24866;50.248;8.252;2022-12-07T09:49:16;8.25;;;4.28;;
37407;SDS011;24866;50.248;8.252;2022-12-07T09:51:57;9.63;;;5.05;;
37407;SDS011;24866;50.248;8.252;2022-12-07T09:54:30;9.50;;;4.30;;
37407;SDS011;24866;50.248;8.252;2022-12-07T09:57:00;11.02;;;5.00;;
37407;SDS011;24866;50.248;8.252;2022-12-07T09:59:30;8.75;;;4.35;;
37407;SDS011;24866;50.248;8.252;2022-12-07T10:02:16;11.20;;;4.45;;
37407;SDS011;24866;50.248;8.252;2022-12-07T10:04:54;8.52;;;3.88;;
37407;SDS011;24866;50.248;8.252;2022-12-07T10:07:27;9.88;;;4.00;;
37407;SDS011;24866;50.248;8.252;2022-12-07T10:09:57;8.55;;;4.05;;
37407;SDS011;24866;50.248;8.252;2022-12-07T10:12:26;9.60;;;4.60;;
37407;SDS011;24866;50.248;8.252;2022-12-07T10:15:00;8.75;;;4.90;;
37407;SDS011;24866;50.248;8.252;2022-12-07T10:17:33;10.77;;;5.43;;
37407;SDS011;24866;50.248;8.252;2022-12-07T10:20:15;11.70;;;6.15;;
37407;SDS011;24866;50.248;8.252;2022-12-07T10:22:53;10.03;;;4.97;;
37407;SDS011;24866;50.248;8.252;2022-12-07T10:25:26;9.23;;;5.70;;
37407;SDS011;24866;50.248;8.252;2022-12-07T10:28:01;12.50;;;5.32;;
37407;SDS011;24866;50.248;8.252;2022-12-07T10:30:46;11.00;;;4.95;;
37407;SDS011;24866;50.248;8.252;2022-12-07T10:33:32;8.73;;;4.55;;
37407;SDS011;24866;50.248;8.252;2022-12-07T10:36:18;9.98;;;5.10;;
37407;SDS011;24866;50.248;8.252;2022-12-07T10:38:51;13.20;;;5.38;;
37407;SDS011;24866;50.248;8.252;2022-12-07T10:41:27;14.50;;;6.03;;
37407;SDS011;24866;50.248;8.252;2022-12-07T10:43:57;9.30;;;5.97;;
37407;SDS011;24866;50.248;8.252;2022-12-07T10:49:49;11.45;;;3.65;;
37407;SDS011;24866;50.248;8.252;2022-12-07T10:52:42;8.75;;;4.13;;
37407;SDS011;24866;50.248;8.252;2022-12-07T10:55:21;10.85;;;4.55;;
37407;SDS011;24866;50.248;8.252;2022-12-07T10:57:59;10.20;;;4.15;;
37407;SDS011;24866;50.248;8.252;2022-12-07T11:00:44;8.02;;;3.63;;
37407;SDS011;24866;50.248;8.252;2022-12-07T11:03:29;10.18;;;4.53;;
37407;SDS011;24866;50.248;8.252;2022-12-07T11:06:09;9.02;;;3.78;;
37407;SDS011;24866;50.248;8.252;2022-12-07T11:11:56;8.50;;;3.47;;
37407;SDS011;24866;50.248;8.252;2022-12-07T11:14:35;7.75;;;3.25;;
37407;SDS011;24866;50.248;8.252;2022-12-07T11:17:11;7.50;;;4.03;;
37407;SDS011;24866;50.248;8.252;2022-12-07T11:19:49;5.22;;;2.65;;
37407;SDS011;24866;50.248;8.252;2022-12-07T11:22:32;7.80;;;3.22;;
37407;SDS011;24866;50.248;8.252;2022-12-07T11:25:16;7.57;;;3.47;;
37407;SDS011;24866;50.248;8.252;2022-12-07T11:27:56;8.63;;;3.08;;
37407;SDS011;24866;50.248;8.252;2022-12-07T11:30:42;6.97;;;3.42;;
37407;SDS011;24866;50.248;8.252;2022-12-07T11:33:19;6.57;;;3.13;;
37407;SDS011;24866;50.248;8.252;2022-12-07T11:36:00;5.38;;;2.63;;
37407;SDS011;24866;50.248;8.252;2022-12-07T11:38:40;5.40;;;2.42;;
37407;SDS011;24866;50.248;8.252;2022-12-07T11:41:16;6.30;;;2.40;;
37407;SDS011;24866;50.248;8.252;2022-12-07T11:43:53;8.10;;;2.50;;
37407;SDS011;24866;50.248;8.252;2022-12-07T11:46:26;8.00;;;3.30;;
37407;SDS011;24866;50.248;8.252;2022-12-07T11:49:03;5.15;;;2.30;;
37407;SDS011;24866;50.248;8.252;2022-12-07T11:51:39;10.05;;;2.80;;
37407;SDS011;24866;50.248;8.252;2022-12-07T11:54:12;6.65;;;1.85;;
37407;SDS011;24866;50.248;8.252;2022-12-07T11:56:49;4.90;;;2.33;;
37407;SDS011;24866;50.248;8.252;2022-12-07T11:59:22;5.63;;;1.95;;
37407;SDS011;24866;50.248;8.252;2022-12-07T12:01:58;2.70;;;1.58;;
37407;SDS011;24866;50.248;8.252;2022-12-07T12:04:34;6.57;;;2.55;;
37407;SDS011;24866;50.248;8.252;2022-12-07T12:07:14;7.53;;;2.28;;
37407;SDS011;24866;50.248;8.252;2022-12-07T12:09:49;5.22;;;1.75;;
37407;SDS011;24866;50.248;8.252;2022-12-07T12:12:37;6.55;;;2.40;;
37407;SDS011;24866;50.248;8.252;2022-12-07T12:15:23;9.00;;;2.35;;
37407;SDS011;24866;50.248;8.252;2022-12-07T12:18:06;6.50;;;2.28;;
37407;SDS011;24866;50.248;8.252;2022-12-07T12:20:49;5.43;;;2.60;;
37407;SDS011;24866;50.248;8.252;2022-12-07T12:23:22;5.40;;;2.80;;
37407;SDS011;24866;50.248;8.252;2022-12-07T12:25:55;6.68;;;2.80;;
37407;SDS011;24866;50.248;8.252;2022-12-07T12:28:32;4.95;;;2.63;;
37407;SDS011;24866;50.248;8.252;2022-12-07T12:31:09;4.93;;;2.20;;
37407;SDS011;24866;50.248;8.252;2022-12-07T12:33:43;5.63;;;2.55;;
37407;SDS011;24866;50.248;8.252;2022-12-07T12:36:19;5.00;;;2.63;;
37407;SDS011;24866;50.248;8.252;2022-12-07T12:39:10;10.15;;;2.83;;
37407;SDS011;24866;50.248;8.252;2022-12-07T12:41:58;7.72;;;3.10;;
37407;SDS011;24866;50.248;8.252;2022-12-07T12:50:29;8.10;;;2.80;;
37407;SDS011;24866;50.248;8.252;2022-12-07T12:53:05;7.50;;;2.53;;
37407;SDS011;24866;50.248;8.252;2022-12-07T12:55:46;7.72;;;2.63;;
37407;SDS011;24866;50.248;8.252;2022-12-07T12:58:43;13.93;;;3.15;;
37407;SDS011;24866;50.248;8.252;2022-12-07T13:04:27;8.57;;;2.28;;
37407;SDS011;24866;50.248;8.252;2022-12-07T13:07:07;6.93;;;2.42;;
37407;SDS011;24866;50.248;8.252;2022-12-07T13:09:43;6.47;;;2.28;;
37407;SDS011;24866;50.248;8.252;2022-12-07T13:12:14;6.90;;;2.47;;
37407;SDS011;24866;50.248;8.252;2022-12-07T13:14:55;6.07;;;2.20;;
37407;SDS011;24866;50.248;8.252;2022-12-07T13:20:49;5.60;;;1.98;;
37407;SDS011;24866;50.248;8.252;2022-12-07T13:23:24;4.60;;;1.92;;
37407;SDS011;24866;50.248;8.252;2022-12-07T13:26:03;4.13;;;2.42;;
37407;SDS011;24866;50.248;8.252;2022-12-07T13:28:43;9.20;;;2.58;;
37407;SDS011;24866;50.248;8.252;2022-12-07T13:31:23;5.75;;;1.90;;
37407;SDS011;24866;50.248;8.252;2022-12-07T13:34:01;7.80;;;2.00;;
37407;SDS011;24866;50.248;8.252;2022-12-07T13:36:34;3.65;;;1.83;;
37407;SDS011;24866;50.248;8.252;2022-12-07T13:39:11;7.88;;;2.13;;
37407;SDS011;24866;50.248;8.252;2022-12-07T13:41:49;4.90;;;1.70;;
37407;SDS011;24866;50.248;8.252;2022-12-07T13:44:21;6.32;;;1.80;;
37407;SDS011;24866;50.248;8.252;2022-12-07T13:46:53;7.05;;;2.10;;
37407;SDS011;24866;50.248;8.252;2022-12-07T13:49:29;7.45;;;1.98;;
37407;SDS011;24866;50.248;8.252;2022-12-07T13:52:12;8.95;;;2.10;;
37407;SDS011;24866;50.248;8.252;2022-12-07T13:54:45;6.55;;;1.92;;
37407;SDS011;24866;50.248;8.252;2022-12-07T13:57:17;4.97;;;2.15;;
37407;SDS011;24866;50.248;8.252;2022-12-07T13:59:48;5.97;;;1.60;;
37407;SDS011;24866;50.248;8.252;2022-12-07T14:02:19;6.95;;;2.47;;
37407;SDS011;24866;50.248;8.252;2022-12-07T14:04:50;10.02;;;3.10;;
37407;SDS011;24866;50.248;8.252;2022-12-07T14:07:24;7.03;;;2.35;;
37407;SDS011;24866;50.248;8.252;2022-12-07T14:09:57;10.20;;;2.42;;
37407;SDS011;24866;50.248;8.252;2022-12-07T14:12:29;11.77;;;2.85;;
37407;SDS011;24866;50.248;8.252;2022-12-07T14:15:00;6.90;;;2.37;;
37407;SDS011;24866;50.248;8.252;2022-12-07T14:17:31;10.02;;;2.95;;
37407;SDS011;24866;50.248;8.252;2022-12-07T14:20:02;16.13;;;2.72;;
37407;SDS011;24866;50.248;8.252;2022-12-07T14:22:55;9.37;;;2.73;;
37407;SDS011;24866;50.248;8.252;2022-12-07T14:25:25;13.95;;;2.58;;
37407;SDS011;24866;50.248;8.252;2022-12-07T14:27:56;9.32;;;3.78;;
37407;SDS011;24866;50.248;8.252;2022-12-07T14:30:28;7.40;;;2.60;;
37407;SDS011;24866;50.248;8.252;2022-12-07T14:33:00;6.15;;;1.65;;
37407;SDS011;24866;50.248;8.252;2022-12-07T14:35:32;6.65;;;1.90;;
37407;SDS011;24866;50.248;8.252;2022-12-07T14:38:03;8.65;;;1.73;;
37407;SDS011;24866;50.248;8.252;2022-12-07T14:40:33;5.65;;;1.95;;
37407;SDS011;24866;50.248;8.252;2022-12-07T14:43:04;9.70;;;1.55;;
37407;SDS011;24866;50.248;8.252;2022-12-07T14:45:38;6.80;;;2.08;;
37407;SDS011;24866;50.248;8.252;2022-12-07T14:48:09;3.60;;;1.25;;
37407;SDS011;24866;50.248;8.252;2022-12-07T14:50:43;3.78;;;1.10;;
37407;SDS011;24866;50.248;8.252;2022-12-07T14:53:21;5.47;;;1.50;;
37407;SDS011;24866;50.248;8.252;2022-12-07T14:55:57;6.90;;;1.60;;
37407;SDS011;24866;50.248;8.252;2022-12-07T14:58:27;3.80;;;1.30;;
37407;SDS011;24866;50.248;8.252;2022-12-07T15:00:57;4.53;;;1.58;;
37407;SDS011;24866;50.248;8.252;2022-12-07T15:03:28;4.70;;;1.13;;
37407;SDS011;24866;50.248;8.252;2022-12-07T15:05:58;6.22;;;1.83;;
37407;SDS011;24866;50.248;8.252;2022-12-07T15:08:30;3.15;;;1.33;;
37407;SDS011;24866;50.248;8.252;2022-12-07T15:11:00;6.45;;;1.58;;
37407;SDS011;24866;50.248;8.252;2022-12-07T15:13:30;10.13;;;2.08;;
37407;SDS011;24866;50.248;8.252;2022-12-07T15:16:19;5.30;;;1.55;;
37407;SDS011;24866;50.248;8.252;2022-12-07T15:18:49;5.38;;;1.85;;
37407;SDS011;24866;50.248;8.252;2022-12-07T15:21:20;8.82;;;2.85;;
37407;SDS011;24866;50.248;8.252;2022-12-07T15:23:51;7.05;;;1.88;;
37407;SDS011;24866;50.248;8.252;2022-12-07T15:26:22;3.88;;;1.33;;
37407;SDS011;24866;50.248;8.252;2022-12-07T15:28:52;13.40;;;4.88;;
37407;SDS011;24866;50.248;8.252;2022-12-07T15:31:22;8.05;;;2.85;;
37407;SDS011;24866;50.248;8.252;2022-12-07T15:33:52;5.20;;;2.58;;
37407;SDS011;24866;50.248;8.252;2022-12-07T15:36:23;7.55;;;2.80;;